sensor_id;sensor_type;location;lat;lon;timestamp;P1;durP1;ratioP1;P2;durP2;ratioP2
2187;SDS011;1100;52.014;8.540;2023-08-08T00:00:27;1.77;;;0.57;;
2187;SDS011;1100;52.014;8.540;2023-08-08T00:02:52;2.20;;;0.73;;
2187;SDS011;1100;52.014;8.540;2023-08-08T00:05:17;2.00;;;0.50;;
2187;SDS011;1100;52.014;8.540;2023-08-08T00:07:43;2.28;;;0.90;;
2187;SDS011;1100;52.014;8.540;2023-08-08T00:10:08;2.43;;;1.03;;
2187;SDS011;1100;52.014;8.540;2023-08-08T00:12:34;3.67;;;0.70;;
2187;SDS011;1100;52.014;8.540;2023-08-08T00:14:59;2.57;;;1.10;;
2187;SDS011;1100;52.014;8.540;2023-08-08T00:17:25;1.30;;;0.37;;
2187;SDS011;1100;52.014;8.540;2023-08-08T00:19:50;2.58;;;0.80;;
2187;SDS011;1100;52.014;8.540;2023-08-08T00:22:16;2.43;;;0.90;;
2187;SDS011;1100;52.014;8.540;2023-08-08T00:24:41;5.53;;;1.35;;
2187;SDS011;1100;52.014;8.540;2023-08-08T00:27:06;2.10;;;0.80;;
2187;SDS011;1100;52.014;8.540;2023-08-08T00:29:32;2.33;;;1.13;;
2187;SDS011;1100;52.014;8.540;2023-08-08T00:31:57;2.13;;;1.07;;
2187;SDS011;1100;52.014;8.540;2023-08-08T00:34:22;2.70;;;0.80;;
2187;SDS011;1100;52.014;8.540;2023-08-08T00:36:47;2.60;;;1.03;;
2187;SDS011;1100;52.014;8.540;2023-08-08T00:39:13;3.50;;;1.20;;
2187;SDS011;1100;52.014;8.540;2023-08-08T00:41:38;3.03;;;0.70;;
2187;SDS011;1100;52.014;8.540;2023-08-08T00:44:03;2.87;;;1.33;;
2187;SDS011;1100;52.014;8.540;2023-08-08T00:46:29;2.53;;;0.87;;
2187;SDS011;1100;52.014;8.540;2023-08-08T00:48:54;3.00;;;0.70;;
2187;SDS011;1100;52.014;8.540;2023-08-08T00:51:20;1.73;;;0.60;;
2187;SDS011;1100;52.014;8.540;2023-08-08T00:53:47;3.15;;;0.98;;
2187;SDS011;1100;52.014;8.540;2023-08-08T00:56:13;2.38;;;0.65;;
2187;SDS011;1100;52.014;8.540;2023-08-08T00:58:39;1.88;;;0.52;;
2187;SDS011;1100;52.014;8.540;2023-08-08T01:01:05;1.97;;;0.50;;
2187;SDS011;1100;52.014;8.540;2023-08-08T01:03:30;1.73;;;0.63;;
2187;SDS011;1100;52.014;8.540;2023-08-08T01:05:59;2.87;;;0.97;;
2187;SDS011;1100;52.014;8.540;2023-08-08T01:08:31;1.73;;;0.30;;
2187;SDS011;1100;52.014;8.540;2023-08-08T01:11:02;1.83;;;0.55;;
2187;SDS011;1100;52.014;8.540;2023-08-08T01:13:28;2.15;;;0.80;;
2187;SDS011;1100;52.014;8.540;2023-08-08T01:15:56;1.48;;;0.40;;
2187;SDS011;1100;52.014;8.540;2023-08-08T01:18:22;1.60;;;0.43;;
2187;SDS011;1100;52.014;8.540;2023-08-08T01:20:48;2.58;;;1.08;;
2187;SDS011;1100;52.014;8.540;2023-08-08T01:23:19;2.03;;;0.93;;
2187;SDS011;1100;52.014;8.540;2023-08-08T01:26:07;3.78;;;0.98;;
2187;SDS011;1100;52.014;8.540;2023-08-08T01:28:33;2.47;;;0.87;;
2187;SDS011;1100;52.014;8.540;2023-08-08T01:30:59;2.20;;;0.98;;
2187;SDS011;1100;52.014;8.540;2023-08-08T01:33:24;1.97;;;0.83;;
2187;SDS011;1100;52.014;8.540;2023-08-08T01:35:51;2.07;;;0.63;;
2187;SDS011;1100;52.014;8.540;2023-08-08T01:38:20;2.92;;;0.95;;
2187;SDS011;1100;52.014;8.540;2023-08-08T01:40:56;2.53;;;0.80;;
2187;SDS011;1100;52.014;8.540;2023-08-08T01:43:23;1.50;;;0.53;;
2187;SDS011;1100;52.014;8.540;2023-08-08T01:45:49;2.72;;;0.85;;
2187;SDS011;1100;52.014;8.540;2023-08-08T01:48:16;2.85;;;0.90;;
2187;SDS011;1100;52.014;8.540;2023-08-08T01:50:41;1.80;;;0.70;;
2187;SDS011;1100;52.014;8.540;2023-08-08T01:53:06;5.10;;;1.03;;
2187;SDS011;1100;52.014;8.540;2023-08-08T01:55:32;1.50;;;0.55;;
2187;SDS011;1100;52.014;8.540;2023-08-08T01:57:57;2.13;;;0.67;;
2187;SDS011;1100;52.014;8.540;2023-08-08T02:00:23;2.87;;;1.00;;
2187;SDS011;1100;52.014;8.540;2023-08-08T02:02:48;2.65;;;0.77;;
2187;SDS011;1100;52.014;8.540;2023-08-08T02:05:14;4.07;;;1.00;;
2187;SDS011;1100;52.014;8.540;2023-08-08T02:07:39;1.90;;;0.60;;
2187;SDS011;1100;52.014;8.540;2023-08-08T02:10:04;1.60;;;0.60;;
2187;SDS011;1100;52.014;8.540;2023-08-08T02:12:30;3.70;;;1.17;;
2187;SDS011;1100;52.014;8.540;2023-08-08T02:14:56;1.95;;;0.52;;
2187;SDS011;1100;52.014;8.540;2023-08-08T02:17:22;2.17;;;0.73;;
2187;SDS011;1100;52.014;8.540;2023-08-08T02:19:47;2.40;;;0.80;;
2187;SDS011;1100;52.014;8.540;2023-08-08T02:22:13;1.80;;;0.70;;
2187;SDS011;1100;52.014;8.540;2023-08-08T02:24:38;2.60;;;0.60;;
2187;SDS011;1100;52.014;8.540;2023-08-08T02:27:03;1.57;;;0.67;;
2187;SDS011;1100;52.014;8.540;2023-08-08T02:29:29;2.10;;;0.55;;
2187;SDS011;1100;52.014;8.540;2023-08-08T02:31:55;1.40;;;0.37;;
2187;SDS011;1100;52.014;8.540;2023-08-08T02:34:20;1.20;;;0.30;;
2187;SDS011;1100;52.014;8.540;2023-08-08T02:36:46;2.00;;;0.53;;
2187;SDS011;1100;52.014;8.540;2023-08-08T02:39:11;2.00;;;0.60;;
2187;SDS011;1100;52.014;8.540;2023-08-08T02:41:37;1.83;;;0.60;;
2187;SDS011;1100;52.014;8.540;2023-08-08T02:44:02;1.47;;;0.40;;
2187;SDS011;1100;52.014;8.540;2023-08-08T02:46:27;1.73;;;0.50;;
2187;SDS011;1100;52.014;8.540;2023-08-08T02:48:53;3.33;;;0.70;;
2187;SDS011;1100;52.014;8.540;2023-08-08T02:51:18;1.07;;;0.33;;
2187;SDS011;1100;52.014;8.540;2023-08-08T02:53:43;1.50;;;0.37;;
2187;SDS011;1100;52.014;8.540;2023-08-08T02:56:09;1.57;;;0.50;;
2187;SDS011;1100;52.014;8.540;2023-08-08T02:58:34;1.47;;;0.60;;
2187;SDS011;1100;52.014;8.540;2023-08-08T03:00:59;1.40;;;0.43;;
2187;SDS011;1100;52.014;8.540;2023-08-08T03:03:25;3.00;;;0.50;;
2187;SDS011;1100;52.014;8.540;2023-08-08T03:05:50;1.27;;;0.40;;
2187;SDS011;1100;52.014;8.540;2023-08-08T03:08:15;1.17;;;0.43;;
2187;SDS011;1100;52.014;8.540;2023-08-08T03:10:40;2.40;;;0.97;;
2187;SDS011;1100;52.014;8.540;2023-08-08T03:13:06;1.73;;;0.57;;
2187;SDS011;1100;52.014;8.540;2023-08-08T03:15:31;1.30;;;0.40;;
2187;SDS011;1100;52.014;8.540;2023-08-08T03:17:57;1.50;;;0.47;;
2187;SDS011;1100;52.014;8.540;2023-08-08T03:20:22;2.30;;;0.67;;
2187;SDS011;1100;52.014;8.540;2023-08-08T03:22:48;1.10;;;0.30;;
2187;SDS011;1100;52.014;8.540;2023-08-08T03:25:13;1.33;;;0.47;;
2187;SDS011;1100;52.014;8.540;2023-08-08T03:27:39;2.67;;;0.70;;
2187;SDS011;1100;52.014;8.540;2023-08-08T03:30:04;1.57;;;0.40;;
2187;SDS011;1100;52.014;8.540;2023-08-08T03:32:31;1.73;;;0.70;;
2187;SDS011;1100;52.014;8.540;2023-08-08T03:34:56;1.53;;;0.30;;
2187;SDS011;1100;52.014;8.540;2023-08-08T03:37:21;1.87;;;0.60;;
2187;SDS011;1100;52.014;8.540;2023-08-08T03:39:46;1.60;;;0.50;;
2187;SDS011;1100;52.014;8.540;2023-08-08T03:42:12;1.40;;;0.43;;
2187;SDS011;1100;52.014;8.540;2023-08-08T03:44:37;2.87;;;0.50;;
2187;SDS011;1100;52.014;8.540;2023-08-08T03:47:02;1.83;;;0.50;;
2187;SDS011;1100;52.014;8.540;2023-08-08T03:49:28;1.77;;;0.50;;
2187;SDS011;1100;52.014;8.540;2023-08-08T03:51:53;1.73;;;0.40;;
2187;SDS011;1100;52.014;8.540;2023-08-08T03:54:18;1.83;;;0.50;;
2187;SDS011;1100;52.014;8.540;2023-08-08T03:56:44;1.90;;;0.40;;
2187;SDS011;1100;52.014;8.540;2023-08-08T03:59:09;3.47;;;0.73;;
2187;SDS011;1100;52.014;8.540;2023-08-08T04:01:37;2.38;;;0.88;;
2187;SDS011;1100;52.014;8.540;2023-08-08T04:04:05;1.98;;;0.65;;
2187;SDS011;1100;52.014;8.540;2023-08-08T04:06:31;2.37;;;0.93;;
2187;SDS011;1100;52.014;8.540;2023-08-08T04:08:56;3.20;;;1.27;;
2187;SDS011;1100;52.014;8.540;2023-08-08T04:11:21;2.37;;;1.07;;
2187;SDS011;1100;52.014;8.540;2023-08-08T04:13:47;1.92;;;0.80;;
2187;SDS011;1100;52.014;8.540;2023-08-08T04:16:12;1.80;;;0.60;;
2187;SDS011;1100;52.014;8.540;2023-08-08T04:18:37;2.70;;;0.77;;
2187;SDS011;1100;52.014;8.540;2023-08-08T04:21:03;2.23;;;0.73;;
2187;SDS011;1100;52.014;8.540;2023-08-08T04:23:29;2.05;;;0.63;;
2187;SDS011;1100;52.014;8.540;2023-08-08T04:25:54;3.67;;;0.73;;
2187;SDS011;1100;52.014;8.540;2023-08-08T04:28:19;2.67;;;0.97;;
2187;SDS011;1100;52.014;8.540;2023-08-08T04:30:45;3.77;;;1.37;;
2187;SDS011;1100;52.014;8.540;2023-08-08T04:33:10;2.55;;;0.85;;
2187;SDS011;1100;52.014;8.540;2023-08-08T04:35:36;2.27;;;0.83;;
2187;SDS011;1100;52.014;8.540;2023-08-08T04:38:01;2.80;;;1.10;;
2187;SDS011;1100;52.014;8.540;2023-08-08T04:40:26;2.63;;;1.10;;
2187;SDS011;1100;52.014;8.540;2023-08-08T04:42:52;2.75;;;1.20;;
2187;SDS011;1100;52.014;8.540;2023-08-08T04:45:17;2.10;;;0.90;;
2187;SDS011;1100;52.014;8.540;2023-08-08T04:47:43;3.97;;;1.00;;
2187;SDS011;1100;52.014;8.540;2023-08-08T04:50:08;3.00;;;1.43;;
2187;SDS011;1100;52.014;8.540;2023-08-08T04:52:35;3.08;;;1.05;;
2187;SDS011;1100;52.014;8.540;2023-08-08T04:55:00;2.67;;;1.20;;
2187;SDS011;1100;52.014;8.540;2023-08-08T04:57:25;2.43;;;0.97;;
2187;SDS011;1100;52.014;8.540;2023-08-08T04:59:50;4.20;;;1.37;;
2187;SDS011;1100;52.014;8.540;2023-08-08T05:02:16;2.90;;;1.00;;
2187;SDS011;1100;52.014;8.540;2023-08-08T05:04:41;2.93;;;1.17;;
2187;SDS011;1100;52.014;8.540;2023-08-08T05:07:06;2.70;;;1.55;;
2187;SDS011;1100;52.014;8.540;2023-08-08T05:09:32;3.73;;;1.90;;
2187;SDS011;1100;52.014;8.540;2023-08-08T05:11:58;2.23;;;0.73;;
2187;SDS011;1100;52.014;8.540;2023-08-08T05:14:23;3.58;;;1.25;;
2187;SDS011;1100;52.014;8.540;2023-08-08T05:16:48;11.67;;;1.50;;
2187;SDS011;1100;52.014;8.540;2023-08-08T05:19:14;2.23;;;0.80;;
2187;SDS011;1100;52.014;8.540;2023-08-08T05:21:39;3.43;;;0.97;;
2187;SDS011;1100;52.014;8.540;2023-08-08T05:24:05;3.13;;;0.80;;
2187;SDS011;1100;52.014;8.540;2023-08-08T05:26:30;4.47;;;1.90;;
2187;SDS011;1100;52.014;8.540;2023-08-08T05:28:55;3.13;;;1.17;;
2187;SDS011;1100;52.014;8.540;2023-08-08T05:31:21;2.17;;;0.63;;
2187;SDS011;1100;52.014;8.540;2023-08-08T05:33:47;2.60;;;0.80;;
2187;SDS011;1100;52.014;8.540;2023-08-08T05:36:13;2.83;;;1.25;;
2187;SDS011;1100;52.014;8.540;2023-08-08T05:38:38;4.10;;;1.33;;
2187;SDS011;1100;52.014;8.540;2023-08-08T05:41:04;2.40;;;0.90;;
2187;SDS011;1100;52.014;8.540;2023-08-08T05:43:29;2.83;;;0.90;;
2187;SDS011;1100;52.014;8.540;2023-08-08T05:45:54;2.70;;;1.10;;
2187;SDS011;1100;52.014;8.540;2023-08-08T05:48:19;2.23;;;0.93;;
2187;SDS011;1100;52.014;8.540;2023-08-08T05:50:45;3.00;;;1.03;;
2187;SDS011;1100;52.014;8.540;2023-08-08T05:53:10;2.97;;;0.93;;
2187;SDS011;1100;52.014;8.540;2023-08-08T05:55:35;2.83;;;0.90;;
2187;SDS011;1100;52.014;8.540;2023-08-08T05:58:01;2.57;;;1.10;;
2187;SDS011;1100;52.014;8.540;2023-08-08T06:00:26;2.83;;;1.07;;
2187;SDS011;1100;52.014;8.540;2023-08-08T06:02:52;2.30;;;0.70;;
2187;SDS011;1100;52.014;8.540;2023-08-08T06:05:17;2.27;;;1.00;;
2187;SDS011;1100;52.014;8.540;2023-08-08T06:07:43;2.60;;;0.93;;
2187;SDS011;1100;52.014;8.540;2023-08-08T06:10:11;2.70;;;0.80;;
2187;SDS011;1100;52.014;8.540;2023-08-08T06:12:36;2.55;;;1.10;;
2187;SDS011;1100;52.014;8.540;2023-08-08T06:15:02;2.53;;;0.97;;
2187;SDS011;1100;52.014;8.540;2023-08-08T06:17:29;3.38;;;0.70;;
2187;SDS011;1100;52.014;8.540;2023-08-08T06:19:54;2.23;;;0.83;;
2187;SDS011;1100;52.014;8.540;2023-08-08T06:22:21;3.70;;;1.80;;
2187;SDS011;1100;52.014;8.540;2023-08-08T06:24:46;3.87;;;1.57;;
2187;SDS011;1100;52.014;8.540;2023-08-08T06:27:12;2.53;;;0.70;;
2187;SDS011;1100;52.014;8.540;2023-08-08T06:29:38;3.78;;;0.98;;
2187;SDS011;1100;52.014;8.540;2023-08-08T06:32:04;3.33;;;1.17;;
2187;SDS011;1100;52.014;8.540;2023-08-08T06:34:29;2.70;;;1.20;;
2187;SDS011;1100;52.014;8.540;2023-08-08T06:36:54;4.33;;;1.67;;
2187;SDS011;1100;52.014;8.540;2023-08-08T06:39:20;2.80;;;1.03;;
2187;SDS011;1100;52.014;8.540;2023-08-08T06:41:46;4.37;;;1.07;;
2187;SDS011;1100;52.014;8.540;2023-08-08T06:44:12;2.50;;;0.68;;
2187;SDS011;1100;52.014;8.540;2023-08-08T06:46:37;2.57;;;0.87;;
2187;SDS011;1100;52.014;8.540;2023-08-08T06:49:03;4.20;;;1.43;;
2187;SDS011;1100;52.014;8.540;2023-08-08T06:51:29;3.40;;;1.27;;
2187;SDS011;1100;52.014;8.540;2023-08-08T06:53:55;2.93;;;1.00;;
2187;SDS011;1100;52.014;8.540;2023-08-08T06:56:20;3.78;;;1.25;;
2187;SDS011;1100;52.014;8.540;2023-08-08T06:58:45;4.83;;;1.37;;
2187;SDS011;1100;52.014;8.540;2023-08-08T07:01:11;2.67;;;1.07;;
2187;SDS011;1100;52.014;8.540;2023-08-08T07:03:36;5.17;;;1.70;;
2187;SDS011;1100;52.014;8.540;2023-08-08T07:06:04;3.93;;;2.00;;
2187;SDS011;1100;52.014;8.540;2023-08-08T07:08:30;4.22;;;1.42;;
2187;SDS011;1100;52.014;8.540;2023-08-08T07:10:58;3.73;;;1.70;;
2187;SDS011;1100;52.014;8.540;2023-08-08T07:13:24;4.85;;;2.03;;
2187;SDS011;1100;52.014;8.540;2023-08-08T07:15:49;4.30;;;2.37;;
2187;SDS011;1100;52.014;8.540;2023-08-08T07:18:14;4.37;;;2.03;;
2187;SDS011;1100;52.014;8.540;2023-08-08T07:20:40;7.55;;;3.05;;
2187;SDS011;1100;52.014;8.540;2023-08-08T07:23:05;5.37;;;2.40;;
2187;SDS011;1100;52.014;8.540;2023-08-08T07:25:31;5.93;;;2.83;;
2187;SDS011;1100;52.014;8.540;2023-08-08T07:27:56;7.10;;;2.38;;
2187;SDS011;1100;52.014;8.540;2023-08-08T07:30:22;4.00;;;2.00;;
2187;SDS011;1100;52.014;8.540;2023-08-08T07:32:47;7.50;;;2.40;;
2187;SDS011;1100;52.014;8.540;2023-08-08T07:35:12;5.33;;;1.93;;
2187;SDS011;1100;52.014;8.540;2023-08-08T07:37:38;4.53;;;2.13;;
2187;SDS011;1100;52.014;8.540;2023-08-08T07:40:12;5.65;;;2.28;;
2187;SDS011;1100;52.014;8.540;2023-08-08T07:42:38;4.28;;;2.33;;
2187;SDS011;1100;52.014;8.540;2023-08-08T07:45:04;5.10;;;2.13;;
2187;SDS011;1100;52.014;8.540;2023-08-08T07:47:30;5.07;;;2.00;;
2187;SDS011;1100;52.014;8.540;2023-08-08T07:49:55;7.43;;;3.17;;
2187;SDS011;1100;52.014;8.540;2023-08-08T07:52:20;6.63;;;2.87;;
2187;SDS011;1100;52.014;8.540;2023-08-08T07:54:45;5.43;;;2.78;;
2187;SDS011;1100;52.014;8.540;2023-08-08T07:57:11;6.90;;;2.47;;
2187;SDS011;1100;52.014;8.540;2023-08-08T07:59:36;5.60;;;2.90;;
2187;SDS011;1100;52.014;8.540;2023-08-08T08:02:01;5.37;;;2.40;;
2187;SDS011;1100;52.014;8.540;2023-08-08T08:04:27;6.13;;;3.10;;
2187;SDS011;1100;52.014;8.540;2023-08-08T08:06:52;5.97;;;3.07;;
2187;SDS011;1100;52.014;8.540;2023-08-08T08:09:17;5.90;;;2.80;;
2187;SDS011;1100;52.014;8.540;2023-08-08T08:11:43;5.20;;;2.70;;
2187;SDS011;1100;52.014;8.540;2023-08-08T08:14:08;5.97;;;2.60;;
2187;SDS011;1100;52.014;8.540;2023-08-08T08:16:33;6.37;;;2.90;;
2187;SDS011;1100;52.014;8.540;2023-08-08T08:18:59;5.37;;;2.23;;
2187;SDS011;1100;52.014;8.540;2023-08-08T08:21:24;5.70;;;2.80;;
2187;SDS011;1100;52.014;8.540;2023-08-08T08:23:50;4.57;;;2.63;;
2187;SDS011;1100;52.014;8.540;2023-08-08T08:26:16;6.80;;;2.53;;
2187;SDS011;1100;52.014;8.540;2023-08-08T08:28:41;5.38;;;3.05;;
2187;SDS011;1100;52.014;8.540;2023-08-08T08:31:06;5.77;;;3.07;;
2187;SDS011;1100;52.014;8.540;2023-08-08T08:33:32;5.78;;;3.05;;
2187;SDS011;1100;52.014;8.540;2023-08-08T08:35:58;5.87;;;2.60;;
2187;SDS011;1100;52.014;8.540;2023-08-08T08:38:23;6.27;;;2.80;;
2187;SDS011;1100;52.014;8.540;2023-08-08T08:40:48;5.77;;;2.27;;
2187;SDS011;1100;52.014;8.540;2023-08-08T08:43:14;7.95;;;3.20;;
2187;SDS011;1100;52.014;8.540;2023-08-08T08:45:40;4.55;;;2.38;;
2187;SDS011;1100;52.014;8.540;2023-08-08T08:48:09;5.90;;;2.43;;
2187;SDS011;1100;52.014;8.540;2023-08-08T08:50:36;9.68;;;2.45;;
2187;SDS011;1100;52.014;8.540;2023-08-08T08:53:04;6.18;;;3.00;;
2187;SDS011;1100;52.014;8.540;2023-08-08T08:55:30;5.35;;;2.45;;
2187;SDS011;1100;52.014;8.540;2023-08-08T08:57:56;4.93;;;2.27;;
2187;SDS011;1100;52.014;8.540;2023-08-08T09:00:21;4.67;;;2.20;;
2187;SDS011;1100;52.014;8.540;2023-08-08T09:02:47;5.25;;;2.00;;
2187;SDS011;1100;52.014;8.540;2023-08-08T09:05:13;4.00;;;1.90;;
2187;SDS011;1100;52.014;8.540;2023-08-08T09:07:40;4.47;;;2.28;;
2187;SDS011;1100;52.014;8.540;2023-08-08T09:10:06;4.10;;;2.07;;
2187;SDS011;1100;52.014;8.540;2023-08-08T09:12:31;6.55;;;1.88;;
2187;SDS011;1100;52.014;8.540;2023-08-08T09:14:58;4.40;;;2.15;;
2187;SDS011;1100;52.014;8.540;2023-08-08T09:17:24;5.83;;;1.97;;
2187;SDS011;1100;52.014;8.540;2023-08-08T09:19:53;3.58;;;1.70;;
2187;SDS011;1100;52.014;8.540;2023-08-08T09:22:19;4.70;;;2.20;;
2187;SDS011;1100;52.014;8.540;2023-08-08T09:24:44;4.53;;;2.33;;
2187;SDS011;1100;52.014;8.540;2023-08-08T09:27:11;4.70;;;2.55;;
2187;SDS011;1100;52.014;8.540;2023-08-08T09:29:36;6.83;;;2.53;;
2187;SDS011;1100;52.014;8.540;2023-08-08T09:32:03;3.63;;;2.00;;
2187;SDS011;1100;52.014;8.540;2023-08-08T09:34:29;6.45;;;2.35;;
2187;SDS011;1100;52.014;8.540;2023-08-08T09:36:54;4.33;;;1.83;;
2187;SDS011;1100;52.014;8.540;2023-08-08T09:39:20;3.47;;;1.40;;
2187;SDS011;1100;52.014;8.540;2023-08-08T09:41:46;5.97;;;1.70;;
2187;SDS011;1100;52.014;8.540;2023-08-08T09:44:12;3.45;;;1.45;;
2187;SDS011;1100;52.014;8.540;2023-08-08T09:46:37;3.30;;;1.00;;
2187;SDS011;1100;52.014;8.540;2023-08-08T09:49:05;3.80;;;1.30;;
2187;SDS011;1100;52.014;8.540;2023-08-08T09:51:31;3.28;;;1.35;;
2187;SDS011;1100;52.014;8.540;2023-08-08T09:53:58;3.10;;;1.03;;
2187;SDS011;1100;52.014;8.540;2023-08-08T09:56:24;4.40;;;1.60;;
2187;SDS011;1100;52.014;8.540;2023-08-08T09:58:51;2.58;;;0.93;;
2187;SDS011;1100;52.014;8.540;2023-08-08T10:01:16;2.92;;;0.70;;
2187;SDS011;1100;52.014;8.540;2023-08-08T10:03:43;4.05;;;1.38;;
2187;SDS011;1100;52.014;8.540;2023-08-08T10:06:10;3.57;;;0.93;;
2187;SDS011;1100;52.014;8.540;2023-08-08T10:08:35;2.83;;;0.82;;
2187;SDS011;1100;52.014;8.540;2023-08-08T10:11:01;6.60;;;0.83;;
2187;SDS011;1100;52.014;8.540;2023-08-08T10:13:27;2.13;;;0.77;;
2187;SDS011;1100;52.014;8.540;2023-08-08T10:15:53;3.80;;;0.93;;
2187;SDS011;1100;52.014;8.540;2023-08-08T10:18:23;2.55;;;0.70;;
2187;SDS011;1100;52.014;8.540;2023-08-08T10:20:49;2.03;;;0.60;;
2187;SDS011;1100;52.014;8.540;2023-08-08T10:23:16;1.58;;;0.40;;
2187;SDS011;1100;52.014;8.540;2023-08-08T10:25:50;2.30;;;0.90;;
2187;SDS011;1100;52.014;8.540;2023-08-08T10:28:17;1.77;;;0.50;;
2187;SDS011;1100;52.014;8.540;2023-08-08T10:30:45;2.13;;;0.50;;
2187;SDS011;1100;52.014;8.540;2023-08-08T10:34:00;2.33;;;0.70;;
2187;SDS011;1100;52.014;8.540;2023-08-08T10:36:07;3.95;;;0.75;;
2187;SDS011;1100;52.014;8.540;2023-08-08T10:38:40;1.95;;;0.70;;
2187;SDS011;1100;52.014;8.540;2023-08-08T10:41:17;3.80;;;0.85;;
2187;SDS011;1100;52.014;8.540;2023-08-08T10:43:49;1.70;;;0.50;;
2187;SDS011;1100;52.014;8.540;2023-08-08T10:46:22;2.40;;;0.73;;
2187;SDS011;1100;52.014;8.540;2023-08-08T10:48:53;2.10;;;0.52;;
2187;SDS011;1100;52.014;8.540;2023-08-08T10:51:19;2.75;;;0.50;;
2187;SDS011;1100;52.014;8.540;2023-08-08T10:53:45;1.10;;;0.30;;
2187;SDS011;1100;52.014;8.540;2023-08-08T10:56:12;1.90;;;0.55;;
2187;SDS011;1100;52.014;8.540;2023-08-08T10:58:42;2.00;;;0.60;;
2187;SDS011;1100;52.014;8.540;2023-08-08T11:01:12;2.30;;;0.70;;
2187;SDS011;1100;52.014;8.540;2023-08-08T11:03:40;2.90;;;0.77;;
2187;SDS011;1100;52.014;8.540;2023-08-08T11:06:09;1.33;;;0.38;;
2187;SDS011;1100;52.014;8.540;2023-08-08T11:08:36;1.42;;;0.40;;
2187;SDS011;1100;52.014;8.540;2023-08-08T11:11:03;2.22;;;0.88;;
2187;SDS011;1100;52.014;8.540;2023-08-08T11:13:29;5.00;;;0.70;;
2187;SDS011;1100;52.014;8.540;2023-08-08T11:15:55;1.67;;;0.40;;
2187;SDS011;1100;52.014;8.540;2023-08-08T11:18:21;1.42;;;0.40;;
2187;SDS011;1100;52.014;8.540;2023-08-08T11:20:47;5.27;;;0.60;;
2187;SDS011;1100;52.014;8.540;2023-08-08T11:23:13;3.50;;;0.88;;
2187;SDS011;1100;52.014;8.540;2023-08-08T11:25:42;1.57;;;0.40;;
2187;SDS011;1100;52.014;8.540;2023-08-08T11:28:09;1.25;;;0.32;;
2187;SDS011;1100;52.014;8.540;2023-08-08T11:30:37;1.73;;;0.57;;
2187;SDS011;1100;52.014;8.540;2023-08-08T11:33:06;1.50;;;0.40;;
2187;SDS011;1100;52.014;8.540;2023-08-08T11:35:32;1.97;;;0.57;;
2187;SDS011;1100;52.014;8.540;2023-08-08T11:37:59;1.27;;;0.20;;
2187;SDS011;1100;52.014;8.540;2023-08-08T11:40:26;1.80;;;0.40;;
2187;SDS011;1100;52.014;8.540;2023-08-08T11:42:53;1.57;;;0.40;;
2187;SDS011;1100;52.014;8.540;2023-08-08T11:45:20;1.63;;;0.38;;
2187;SDS011;1100;52.014;8.540;2023-08-08T11:47:49;2.10;;;0.57;;
2187;SDS011;1100;52.014;8.540;2023-08-08T11:50:15;1.65;;;0.40;;
2187;SDS011;1100;52.014;8.540;2023-08-08T11:52:45;1.33;;;0.30;;
2187;SDS011;1100;52.014;8.540;2023-08-08T11:55:11;2.08;;;0.40;;
2187;SDS011;1100;52.014;8.540;2023-08-08T11:57:38;1.42;;;0.35;;
2187;SDS011;1100;52.014;8.540;2023-08-08T12:00:05;1.55;;;0.43;;
2187;SDS011;1100;52.014;8.540;2023-08-08T12:02:32;1.73;;;0.40;;
2187;SDS011;1100;52.014;8.540;2023-08-08T12:05:03;1.83;;;0.50;;
2187;SDS011;1100;52.014;8.540;2023-08-08T12:07:31;1.65;;;0.50;;
2187;SDS011;1100;52.014;8.540;2023-08-08T12:09:58;1.77;;;0.30;;
2187;SDS011;1100;52.014;8.540;2023-08-08T12:12:26;1.47;;;0.40;;
2187;SDS011;1100;52.014;8.540;2023-08-08T12:14:53;1.15;;;0.30;;
2187;SDS011;1100;52.014;8.540;2023-08-08T12:17:20;1.73;;;0.40;;
2187;SDS011;1100;52.014;8.540;2023-08-08T12:19:47;1.77;;;0.40;;
2187;SDS011;1100;52.014;8.540;2023-08-08T12:22:13;1.70;;;0.60;;
2187;SDS011;1100;52.014;8.540;2023-08-08T12:24:38;2.60;;;0.38;;
2187;SDS011;1100;52.014;8.540;2023-08-08T12:27:03;2.77;;;0.90;;
2187;SDS011;1100;52.014;8.540;2023-08-08T12:29:29;1.57;;;0.40;;
2187;SDS011;1100;52.014;8.540;2023-08-08T12:31:54;1.40;;;0.37;;
2187;SDS011;1100;52.014;8.540;2023-08-08T12:34:20;1.10;;;0.30;;
2187;SDS011;1100;52.014;8.540;2023-08-08T12:36:45;2.15;;;0.50;;
2187;SDS011;1100;52.014;8.540;2023-08-08T12:39:10;1.37;;;0.30;;
2187;SDS011;1100;52.014;8.540;2023-08-08T12:41:36;1.23;;;0.30;;
2187;SDS011;1100;52.014;8.540;2023-08-08T12:44:01;1.47;;;0.40;;
2187;SDS011;1100;52.014;8.540;2023-08-08T12:46:28;1.70;;;0.45;;
2187;SDS011;1100;52.014;8.540;2023-08-08T12:48:53;2.25;;;0.50;;
2187;SDS011;1100;52.014;8.540;2023-08-08T12:51:19;1.10;;;0.30;;
2187;SDS011;1100;52.014;8.540;2023-08-08T12:53:44;1.77;;;0.40;;
2187;SDS011;1100;52.014;8.540;2023-08-08T12:56:10;2.40;;;0.50;;
2187;SDS011;1100;52.014;8.540;2023-08-08T12:58:35;5.27;;;0.30;;
2187;SDS011;1100;52.014;8.540;2023-08-08T13:01:00;1.77;;;0.53;;
2187;SDS011;1100;52.014;8.540;2023-08-08T13:03:25;1.70;;;0.47;;
2187;SDS011;1100;52.014;8.540;2023-08-08T13:05:51;1.20;;;0.30;;
2187;SDS011;1100;52.014;8.540;2023-08-08T13:08:17;1.45;;;0.40;;
2187;SDS011;1100;52.014;8.540;2023-08-08T13:10:42;1.77;;;0.40;;
2187;SDS011;1100;52.014;8.540;2023-08-08T13:13:08;1.10;;;0.30;;
2187;SDS011;1100;52.014;8.540;2023-08-08T13:15:34;1.40;;;0.40;;
2187;SDS011;1100;52.014;8.540;2023-08-08T13:18:00;1.33;;;0.47;;
2187;SDS011;1100;52.014;8.540;2023-08-08T13:20:25;1.50;;;0.30;;
2187;SDS011;1100;52.014;8.540;2023-08-08T13:22:51;1.47;;;0.30;;
2187;SDS011;1100;52.014;8.540;2023-08-08T13:25:16;1.50;;;0.37;;
2187;SDS011;1100;52.014;8.540;2023-08-08T13:27:43;1.38;;;0.40;;
2187;SDS011;1100;52.014;8.540;2023-08-08T13:30:09;1.45;;;0.40;;
2187;SDS011;1100;52.014;8.540;2023-08-08T13:32:35;1.77;;;0.50;;
2187;SDS011;1100;52.014;8.540;2023-08-08T13:35:00;1.17;;;0.30;;
2187;SDS011;1100;52.014;8.540;2023-08-08T13:37:25;1.30;;;0.30;;
2187;SDS011;1100;52.014;8.540;2023-08-08T13:39:51;1.10;;;0.30;;
2187;SDS011;1100;52.014;8.540;2023-08-08T13:42:16;1.30;;;0.37;;
2187;SDS011;1100;52.014;8.540;2023-08-08T13:44:41;1.63;;;0.50;;
2187;SDS011;1100;52.014;8.540;2023-08-08T13:47:07;1.73;;;0.40;;
2187;SDS011;1100;52.014;8.540;2023-08-08T13:49:32;2.67;;;0.30;;
2187;SDS011;1100;52.014;8.540;2023-08-08T13:51:57;2.00;;;0.40;;
2187;SDS011;1100;52.014;8.540;2023-08-08T13:54:23;5.70;;;0.50;;
2187;SDS011;1100;52.014;8.540;2023-08-08T13:56:48;1.30;;;0.40;;
2187;SDS011;1100;52.014;8.540;2023-08-08T13:59:14;1.83;;;0.50;;
2187;SDS011;1100;52.014;8.540;2023-08-08T14:01:39;1.43;;;0.40;;
2187;SDS011;1100;52.014;8.540;2023-08-08T14:04:05;1.60;;;0.30;;
2187;SDS011;1100;52.014;8.540;2023-08-08T14:06:30;3.87;;;0.50;;
2187;SDS011;1100;52.014;8.540;2023-08-08T14:08:56;1.30;;;0.37;;
2187;SDS011;1100;52.014;8.540;2023-08-08T14:11:21;2.65;;;0.50;;
2187;SDS011;1100;52.014;8.540;2023-08-08T14:13:47;1.97;;;0.67;;
2187;SDS011;1100;52.014;8.540;2023-08-08T14:16:12;1.20;;;0.37;;
2187;SDS011;1100;52.014;8.540;2023-08-08T14:18:38;2.17;;;0.47;;
2187;SDS011;1100;52.014;8.540;2023-08-08T14:21:03;1.65;;;0.43;;
2187;SDS011;1100;52.014;8.540;2023-08-08T14:23:29;1.50;;;0.50;;
2187;SDS011;1100;52.014;8.540;2023-08-08T14:25:55;2.92;;;0.30;;
2187;SDS011;1100;52.014;8.540;2023-08-08T14:28:20;1.87;;;0.50;;
2187;SDS011;1100;52.014;8.540;2023-08-08T14:30:45;3.47;;;0.37;;
2187;SDS011;1100;52.014;8.540;2023-08-08T14:33:12;1.90;;;0.60;;
2187;SDS011;1100;52.014;8.540;2023-08-08T14:35:39;1.90;;;0.40;;
2187;SDS011;1100;52.014;8.540;2023-08-08T14:38:04;16.40;;;0.70;;
2187;SDS011;1100;52.014;8.540;2023-08-08T14:40:30;2.58;;;0.38;;
2187;SDS011;1100;52.014;8.540;2023-08-08T14:42:57;1.80;;;0.40;;
2187;SDS011;1100;52.014;8.540;2023-08-08T14:45:23;1.52;;;0.30;;
2187;SDS011;1100;52.014;8.540;2023-08-08T14:47:49;1.85;;;0.40;;
2187;SDS011;1100;52.014;8.540;2023-08-08T14:50:14;1.43;;;0.30;;
2187;SDS011;1100;52.014;8.540;2023-08-08T14:52:40;1.30;;;0.30;;
2187;SDS011;1100;52.014;8.540;2023-08-08T14:55:06;1.70;;;0.50;;
2187;SDS011;1100;52.014;8.540;2023-08-08T14:57:32;1.83;;;0.60;;
2187;SDS011;1100;52.014;8.540;2023-08-08T14:59:58;1.80;;;0.50;;
2187;SDS011;1100;52.014;8.540;2023-08-08T15:02:25;1.60;;;0.43;;
2187;SDS011;1100;52.014;8.540;2023-08-08T15:04:51;1.53;;;0.50;;
2187;SDS011;1100;52.014;8.540;2023-08-08T15:07:16;1.80;;;0.60;;